• Join FlightAware (Why Join?)
  • Login
  • US Flag 
08:05PM EDT


 

Airport Tracker/Info


-or-


 

Live Flight TrackerFlight Track Log ✈ JZA934 ✈ 20-Apr-2012 ✈ CYYZ - CYQM

Flight Track Log - Related Links

Times and Time Zones

All times are in EDT time to prevent confusion due to time zone crossing. See the JZA934 flight status page for this flight to view local times or setup timezone preferences in your user account.

Time Position Orientation Groundspeed Altitude Reporting Facility
EDT Latitude Longitude Course Direction KTS MPH feet Rate Location/Type
09:59AM 45.6326 -68.1510 78° East  Level FlightAware Approximate
10:02AM 45.7833 -67.1333 82° East 380 437 25,000  Level Moncton Center
10:03AM 45.8000 -66.9667 72° East 380 437 25,000 -720 Level Moncton Center
10:04AM 45.8333 -66.8167 82° East 400 460 23,600 -1,560 Descending Moncton Center
10:05AM 45.8500 -66.6333 81° East 420 483 21,900 -1,620 Descending Moncton Center
10:06AM 45.8667 -66.4833 74° East 420 483 20,400 -1,500 Descending Moncton Center
10:07AM 45.9000 -66.3167 74° East 410 472 18,900 -1,560 Descending Moncton Center
10:08AM 45.9333 -66.1500 80° East 400 460 17,300 -1,560 Descending Moncton Center
10:09AM 45.9500 -66.0167 90° East 400 460 15,800 -1,620 Descending Moncton Center
10:10AM 45.9500 -65.8333 80° East 390 449 14,100 -1,620 Descending Moncton Center
10:11AM 45.9667 -65.7000 90° East 380 437 12,600 -1,560 Descending Moncton Center
10:12AM 45.9667 -65.5500 80° East 370 426 11,000 -1,320 Descending Moncton Center
10:13AM 45.9833 -65.4167 90° East 350 403 10,000 -1,260 Descending Moncton Center
10:14AM 45.9833 -65.3167 81° East 310 357 8,500 -1,500 Descending Moncton Center
10:15AM 46.0000 -65.1667 90° East 300 345 7,100 -1,440 Descending Moncton Center
10:16AM 46.0000 -65.0667 68° East 290 334 5,700 -1,500 Descending Moncton Center
10:17AM 46.0333 -64.9500 90° East 280 322 4,100 -1,260 Descending Moncton Center
10:18AM 46.0333 -64.8500 74° East 260 299 3,200 -1,140 Descending Moncton Center
10:19AM 46.0500 -64.7667 74° East 230 265 1,900 -900 Descending Moncton Center
10:20AM 46.0667 -64.6833 90° East 210 242 1,400 -300 Descending Moncton Center
10:21AM 46.0667 -64.6167 35° Northeast 180 207 1,300 -120 Descending Moncton Center
10:22AM 46.1000 -64.5833 270° West 140 161 1,200 -360 Descending Moncton Center
10:23AM 46.1000 -64.6333 270° West 130 150 600 -480 Descending Moncton Center
10:24AM 46.1000 -64.6833 270° West 120 138 300 -300 Descending Moncton Center